Time;durP1;ratioP1;P1;durP2;ratioP2;P2;SDS_P1;SDS_P2;PMS_P1;PMS_P2;Temp;Humidity;BMP_temperature;BMP_pressure;BME280_temperature;BME280_humidity;BME280_pressure;Samples;Min_cycle;Max_cycle;Signal;HPM_P1;HPM_P2
2022/01/06 00:01:44;;;;;;;11.50;2.47;;;12.50;61.40;;;;;;6157933;23;20318;-73
2022/01/06 00:04:10;;;;;;;10.15;2.40;;;12.50;61.30;;;;;;6159635;23;20033;-73
2022/01/06 00:06:39;;;;;;;9.63;2.42;;;12.50;61.10;;;;;;6159206;23;20018;-71
2022/01/06 00:09:06;;;;;;;15.85;3.45;;;12.50;61.40;;;;;;6158083;23;20088;-73
2022/01/06 00:11:33;;;;;;;8.75;2.35;;;12.40;61.40;;;;;;6159451;23;20024;-72
2022/01/06 00:14:34;;;;;;;13.30;2.45;;;12.50;61.20;;;;;;6160294;23;20021;-73
2022/01/06 00:24:27;;;;;;;7.80;2.22;;;12.40;60.60;;;;;;6159195;23;20022;-72
2022/01/06 00:26:54;;;;;;;8.05;2.50;;;12.40;60.30;;;;;;6159449;23;20028;-72
2022/01/06 00:29:20;;;;;;;10.05;2.38;;;12.40;60.80;;;;;;6159195;23;20367;-71
2022/01/06 00:31:46;;;;;;;9.57;2.33;;;12.40;60.90;;;;;;6159663;23;20029;-72
2022/01/06 00:34:12;;;;;;;10.25;2.30;;;12.40;61.00;;;;;;6159473;23;20088;-72
2022/01/06 00:36:39;;;;;;;13.90;2.60;;;12.40;60.70;;;;;;6159672;23;20018;-72
2022/01/06 00:39:06;;;;;;;9.75;2.35;;;12.50;60.80;;;;;;6159015;23;20013;-72
2022/01/06 00:41:34;;;;;;;13.00;3.00;;;12.40;60.70;;;;;;6158874;23;20427;-71
2022/01/06 00:43:59;;;;;;;9.23;1.88;;;12.30;60.70;;;;;;6158894;23;20018;-72
2022/01/06 00:46:25;;;;;;;10.55;2.33;;;12.30;60.90;;;;;;6157340;23;20028;-71
2022/01/06 00:48:51;;;;;;;13.35;2.60;;;12.30;60.80;;;;;;6157896;23;20096;-72
2022/01/06 00:51:17;;;;;;;6.88;1.70;;;12.20;60.80;;;;;;6158115;23;20056;-72
2022/01/06 00:53:42;;;;;;;6.72;1.88;;;12.20;61.00;;;;;;6158213;23;20088;-72
2022/01/06 00:56:08;;;;;;;8.52;2.13;;;12.20;61.10;;;;;;6159225;23;20303;-72
2022/01/06 00:58:34;;;;;;;11.40;2.40;;;12.20;60.90;;;;;;6157594;23;20022;-72
2022/01/06 01:01:00;;;;;;;9.57;2.45;;;12.20;60.80;;;;;;6158333;23;20025;-71
2022/01/06 01:03:27;;;;;;;9.40;2.75;;;12.20;60.80;;;;;;6159041;23;20021;-72
2022/01/06 01:05:55;;;;;;;6.88;1.73;;;12.20;60.60;;;;;;6159290;23;20029;-71
2022/01/06 01:08:22;;;;;;;7.90;1.70;;;12.20;60.20;;;;;;6157885;23;20022;-73
2022/01/06 01:10:49;;;;;;;8.35;2.13;;;12.20;60.50;;;;;;6157791;23;20420;-72
2022/01/06 01:13:16;;;;;;;7.82;1.90;;;12.20;60.60;;;;;;6158670;23;20284;-71
2022/01/06 01:15:52;;;;;;;11.88;2.67;;;12.20;60.80;;;;;;6158763;23;20028;-74
2022/01/06 01:18:19;;;;;;;11.25;2.40;;;12.20;60.20;;;;;;6158948;23;20029;-71
2022/01/06 01:20:50;;;;;;;7.85;1.80;;;12.20;60.60;;;;;;6158912;23;20060;-72
2022/01/06 01:23:17;;;;;;;10.90;2.70;;;12.30;60.30;;;;;;6157390;23;20080;-73
2022/01/06 01:25:43;;;;;;;10.85;2.55;;;12.30;60.50;;;;;;6157632;23;20072;-72
2022/01/06 01:28:10;;;;;;;10.50;1.88;;;12.30;60.30;;;;;;6157968;23;20102;-73
2022/01/06 01:30:51;;;;;;;13.77;2.20;;;12.30;60.30;;;;;;6158797;23;20026;-72
2022/01/06 01:33:17;;;;;;;9.43;1.92;;;12.30;60.30;;;;;;6158516;23;20028;-72
2022/01/06 01:35:43;;;;;;;9.18;2.22;;;12.30;60.60;;;;;;6158722;23;20021;-72
2022/01/06 01:38:09;;;;;;;8.82;2.00;;;12.30;60.50;;;;;;6158705;23;20092;-73
2022/01/06 01:40:35;;;;;;;9.88;2.55;;;12.30;60.70;;;;;;6158619;23;20017;-71
2022/01/06 01:43:00;;;;;;;8.05;1.80;;;12.30;60.60;;;;;;6157814;23;20018;-73
2022/01/06 01:45:31;;;;;;;9.82;1.80;;;12.30;60.80;;;;;;6156887;23;20018;-72
2022/01/06 01:47:59;;;;;;;7.35;2.17;;;12.30;60.90;;;;;;6156829;23;20021;-73
2022/01/06 01:50:25;;;;;;;8.73;1.80;;;12.30;60.50;;;;;;6158625;23;20108;-73
2022/01/06 01:52:58;;;;;;;9.55;2.15;;;12.30;60.40;;;;;;6158262;23;20028;-71
2022/01/06 01:55:29;;;;;;;9.57;1.57;;;12.30;60.40;;;;;;6158549;23;20027;-72
2022/01/06 01:57:56;;;;;;;9.05;2.13;;;12.30;60.10;;;;;;6158571;23;20010;-72
2022/01/06 02:00:27;;;;;;;14.63;2.50;;;12.20;60.10;;;;;;6157782;23;20072;-73
2022/01/06 02:02:53;;;;;;;9.05;1.80;;;12.20;60.50;;;;;;6158108;23;20025;-71
2022/01/06 02:05:25;;;;;;;7.30;1.80;;;12.30;60.70;;;;;;6158589;23;20368;-72
2022/01/06 02:07:53;;;;;;;8.02;1.85;;;12.20;60.10;;;;;;6157112;23;20017;-73
2022/01/06 02:10:20;;;;;;;10.25;2.33;;;12.20;60.50;;;;;;6158073;23;20013;-73
2022/01/06 02:12:48;;;;;;;9.93;2.33;;;12.30;60.40;;;;;;6158636;23;20014;-73
2022/01/06 02:15:15;;;;;;;9.07;2.80;;;12.30;60.20;;;;;;6158374;23;20014;-72
2022/01/06 02:17:41;;;;;;;9.60;2.03;;;12.20;59.90;;;;;;6157073;23;20327;-72
2022/01/06 02:20:10;;;;;;;5.68;1.75;;;12.20;59.90;;;;;;6158291;23;20020;-72
2022/01/06 02:22:37;;;;;;;8.63;1.70;;;12.30;60.30;;;;;;6158519;23;20033;-71
2022/01/06 02:25:18;;;;;;;8.20;2.08;;;12.20;60.20;;;;;;6157866;23;20455;-71
2022/01/06 02:27:49;;;;;;;9.55;2.22;;;12.30;59.60;;;;;;6158347;23;20057;-71
2022/01/06 02:30:15;;;;;;;7.05;1.65;;;12.30;60.30;;;;;;6158030;23;20311;-72
2022/01/06 02:32:41;;;;;;;9.52;2.05;;;12.30;60.20;;;;;;6158150;23;20029;-72
2022/01/06 02:35:15;;;;;;;6.03;1.98;;;12.30;60.00;;;;;;6157613;23;20030;-71
2022/01/06 02:37:41;;;;;;;7.43;1.88;;;12.30;60.00;;;;;;6156858;23;20442;-72
2022/01/06 02:40:12;;;;;;;8.55;1.92;;;12.40;60.30;;;;;;6157610;23;20013;-72
2022/01/06 02:42:47;;;;;;;7.47;2.13;;;12.40;61.00;;;;;;6156411;23;20085;-73
2022/01/06 02:45:13;;;;;;;8.00;1.80;;;12.40;60.20;;;;;;6158111;23;20026;-73
2022/01/06 02:47:40;;;;;;;10.55;2.25;;;12.30;60.50;;;;;;6157794;23;20022;-71
2022/01/06 02:50:08;;;;;;;8.43;1.88;;;12.30;60.70;;;;;;6156585;23;20025;-71
2022/01/06 02:52:34;;;;;;;8.85;2.20;;;12.30;60.20;;;;;;6157752;23;20029;-71
2022/01/06 02:55:00;;;;;;;8.75;1.88;;;12.30;60.50;;;;;;6156860;23;20018;-72
2022/01/06 02:57:25;;;;;;;11.07;2.20;;;12.20;60.30;;;;;;6157683;23;20076;-72
2022/01/06 02:59:51;;;;;;;8.18;2.35;;;12.30;60.60;;;;;;6158557;23;20026;-72
2022/01/06 03:02:17;;;;;;;7.82;2.15;;;12.30;60.70;;;;;;6156816;23;20017;-71
2022/01/06 03:04:43;;;;;;;9.02;1.98;;;12.30;60.60;;;;;;6157287;23;20021;-72
2022/01/06 03:07:08;;;;;;;9.10;1.92;;;12.20;60.60;;;;;;6158040;23;20407;-73
2022/01/06 03:09:40;;;;;;;9.23;2.38;;;12.20;60.60;;;;;;6157164;23;20096;-72
2022/01/06 03:12:10;;;;;;;9.15;2.17;;;12.30;60.70;;;;;;6156733;23;20311;-72
2022/01/06 03:14:37;;;;;;;10.38;2.50;;;12.30;60.70;;;;;;6157907;23;20367;-72
2022/01/06 03:17:04;;;;;;;9.43;1.92;;;12.30;60.70;;;;;;6158649;23;20022;-72
2022/01/06 03:19:30;;;;;;;10.40;2.25;;;12.30;60.70;;;;;;6157395;23;20021;-71
2022/01/06 03:21:56;;;;;;;10.30;1.80;;;12.30;60.60;;;;;;6156994;23;20028;-72
2022/01/06 03:24:21;;;;;;;7.88;1.77;;;12.30;60.50;;;;;;6157754;23;20025;-72
2022/01/06 03:26:47;;;;;;;7.47;1.98;;;12.30;60.60;;;;;;6158434;23;20403;-73
2022/01/06 03:29:13;;;;;;;5.43;1.45;;;12.20;60.60;;;;;;6156659;23;20025;-71
2022/01/06 03:31:39;;;;;;;8.82;1.98;;;12.20;60.80;;;;;;6157781;23;20028;-72
2022/01/06 03:34:05;;;;;;;6.97;1.85;;;12.30;60.80;;;;;;6132699;23;20018;-73
2022/01/06 03:36:30;;;;;;;10.38;2.40;;;12.30;60.70;;;;;;6158149;23;20032;-73
2022/01/06 03:38:56;;;;;;;6.57;2.00;;;12.30;60.60;;;;;;6156290;23;20433;-72
2022/01/06 03:41:22;;;;;;;6.68;2.03;;;12.30;60.40;;;;;;6156500;23;20315;-72
2022/01/06 03:43:47;;;;;;;7.38;1.67;;;12.30;60.30;;;;;;6157576;23;20021;-73
2022/01/06 03:46:13;;;;;;;7.57;1.63;;;12.30;60.00;;;;;;6157921;23;20028;-73
2022/01/06 03:48:39;;;;;;;10.68;2.08;;;12.30;60.00;;;;;;6156350;23;20104;-72
2022/01/06 03:51:04;;;;;;;6.70;1.40;;;12.30;60.10;;;;;;6157366;23;20079;-71
2022/01/06 03:53:30;;;;;;;8.38;1.38;;;12.30;60.30;;;;;;6157718;23;20027;-73
2022/01/06 03:55:56;;;;;;;9.52;2.22;;;12.30;60.20;;;;;;6158410;23;20021;-72
2022/01/06 03:58:22;;;;;;;5.25;1.55;;;12.30;60.30;;;;;;6157445;23;20025;-71
2022/01/06 04:00:47;;;;;;;6.80;2.05;;;12.40;60.30;;;;;;6156915;23;20057;-71
2022/01/06 04:03:14;;;;;;;9.32;1.80;;;12.40;60.20;;;;;;6157606;23;20028;-73
2022/01/06 04:05:40;;;;;;;7.72;1.75;;;12.40;60.20;;;;;;6157985;23;20018;-72
2022/01/06 04:08:05;;;;;;;7.53;2.05;;;12.40;60.10;;;;;;6157439;23;20077;-72
2022/01/06 04:10:31;;;;;;;9.48;2.42;;;12.40;60.00;;;;;;6156095;23;20017;-72
2022/01/06 04:12:57;;;;;;;11.57;2.15;;;12.50;60.10;;;;;;6157701;23;20088;-73
2022/01/06 04:15:26;;;;;;;8.13;2.00;;;12.40;60.10;;;;;;6157112;23;20301;-72
2022/01/06 04:17:51;;;;;;;6.40;1.55;;;12.50;60.10;;;;;;6156491;23;20022;-72
2022/01/06 04:20:17;;;;;;;6.50;1.50;;;12.50;60.00;;;;;;6156312;23;20017;-72
2022/01/06 04:22:43;;;;;;;5.60;1.80;;;12.50;59.90;;;;;;6156329;23;20017;-72
2022/01/06 04:25:10;;;;;;;6.65;1.80;;;12.50;60.00;;;;;;6156560;23;20092;-71
2022/01/06 04:27:36;;;;;;;6.53;1.35;;;12.50;60.10;;;;;;6158607;23;20040;-71
2022/01/06 04:30:05;;;;;;;6.88;1.65;;;12.50;60.70;;;;;;6159407;23;20411;-72
2022/01/06 04:32:32;;;;;;;7.03;2.00;;;12.50;59.90;;;;;;6158636;23;20021;-73
2022/01/06 04:34:58;;;;;;;5.43;1.67;;;12.50;59.80;;;;;;6158497;23;20021;-71
2022/01/06 04:37:25;;;;;;;9.20;1.52;;;12.50;60.00;;;;;;6159210;23;20088;-71
2022/01/06 04:39:50;;;;;;;7.88;1.67;;;12.60;60.00;;;;;;6159559;23;20018;-72
2022/01/06 04:42:16;;;;;;;8.90;2.17;;;12.60;60.60;;;;;;6157606;23;20098;-73
2022/01/06 04:44:42;;;;;;;13.18;1.85;;;12.60;59.90;;;;;;6158966;23;20021;-72
2022/01/06 04:47:08;;;;;;;6.57;1.95;;;12.60;59.80;;;;;;6158487;23;20013;-71
2022/01/06 04:49:33;;;;;;;7.15;1.88;;;12.60;59.80;;;;;;6158694;23;20074;-71
2022/01/06 04:52:00;;;;;;;6.28;1.88;;;12.70;59.70;;;;;;6159822;23;20028;-71
2022/01/06 04:54:26;;;;;;;9.45;2.00;;;12.70;59.70;;;;;;6158928;23;20402;-71
2022/01/06 04:56:52;;;;;;;8.70;1.90;;;12.70;59.60;;;;;;6159049;23;20041;-72
2022/01/06 04:59:18;;;;;;;10.43;1.48;;;12.60;59.50;;;;;;6159124;23;20017;-72
2022/01/06 05:01:44;;;;;;;6.22;1.92;;;12.70;59.50;;;;;;6158889;23;20089;-71
2022/01/06 05:04:10;;;;;;;8.05;1.92;;;12.60;59.40;;;;;;6159086;23;20032;-72
2022/01/06 05:06:36;;;;;;;5.20;1.30;;;12.70;59.40;;;;;;6159124;23;20029;-71
2022/01/06 05:09:02;;;;;;;6.22;2.10;;;12.60;59.40;;;;;;6158557;23;20355;-73
2022/01/06 05:11:29;;;;;;;10.27;1.60;;;12.60;59.20;;;;;;6157589;23;20036;-73
2022/01/06 05:13:55;;;;;;;7.72;1.90;;;12.60;59.20;;;;;;6158963;23;20056;-73
2022/01/06 05:16:21;;;;;;;7.35;1.40;;;12.60;59.40;;;;;;6157844;23;20036;-71
2022/01/06 05:18:47;;;;;;;7.03;2.00;;;12.60;59.40;;;;;;6159898;23;20088;-72
2022/01/06 05:21:13;;;;;;;4.75;1.50;;;12.60;59.40;;;;;;6158914;23;20031;-73
2022/01/06 05:23:40;;;;;;;8.13;1.95;;;12.60;59.30;;;;;;6159457;23;20300;-72
2022/01/06 05:26:06;;;;;;;7.68;1.85;;;12.70;59.20;;;;;;6158020;23;20435;-72
2022/01/06 05:28:32;;;;;;;9.57;1.58;;;12.70;59.30;;;;;;6159154;23;20111;-73
2022/01/06 05:30:58;;;;;;;9.00;2.13;;;12.70;58.80;;;;;;6159127;23;20022;-72
2022/01/06 05:33:24;;;;;;;6.63;1.58;;;12.80;58.30;;;;;;6156996;23;20018;-72
2022/01/06 05:35:50;;;;;;;10.80;2.33;;;12.80;57.40;;;;;;6157734;23;20104;-75
2022/01/06 05:38:16;;;;;;;7.00;2.03;;;12.90;56.50;;;;;;6156938;23;20436;-74
2022/01/06 05:40:41;;;;;;;7.80;1.63;;;12.90;56.10;;;;;;6159084;23;20021;-72
2022/01/06 05:43:07;;;;;;;8.30;2.33;;;13.00;55.40;;;;;;6157397;23;20057;-70
2022/01/06 05:45:33;;;;;;;14.40;2.00;;;13.00;54.70;;;;;;6157793;23;20367;-72
2022/01/06 05:47:59;;;;;;;7.85;1.85;;;13.00;53.80;;;;;;6157893;23;20022;-75
2022/01/06 05:50:26;;;;;;;11.15;2.28;;;13.00;53.20;;;;;;6157062;23;20013;-76
2022/01/06 05:52:54;;;;;;;14.85;1.90;;;13.00;52.70;;;;;;6157035;23;20486;-76
2022/01/06 05:55:21;;;;;;;12.35;2.30;;;13.00;52.40;;;;;;6158611;23;20072;-77
2022/01/06 05:57:47;;;;;;;11.88;1.90;;;12.90;52.40;;;;;;6158448;23;20351;-74
2022/01/06 06:00:14;;;;;;;7.70;2.00;;;12.90;53.20;;;;;;6156883;23;20018;-73
2022/01/06 06:02:39;;;;;;;12.45;3.05;;;12.80;54.20;;;;;;6158603;23;20028;-74
2022/01/06 06:05:05;;;;;;;14.13;4.82;;;12.80;55.00;;;;;;6158430;23;20025;-70
2022/01/06 06:07:31;;;;;;;14.35;2.55;;;12.90;56.50;;;;;;6157476;23;20022;-71
2022/01/06 06:09:57;;;;;;;11.63;2.08;;;13.10;56.60;;;;;;6159172;23;20022;-74
2022/01/06 06:12:22;;;;;;;9.05;2.17;;;13.10;58.00;;;;;;6157255;23;20108;-79
2022/01/06 06:14:48;;;;;;;11.23;2.47;;;13.40;57.70;;;;;;6157334;23;20017;-75
2022/01/06 06:17:14;;;;;;;12.27;2.40;;;13.70;57.70;;;;;;6157378;23;20032;-75
2022/01/06 06:19:39;;;;;;;11.40;1.92;;;14.00;57.70;;;;;;6156919;23;20482;-75
2022/01/06 06:22:10;;;;;;;15.40;2.85;;;14.20;57.70;;;;;;6158315;23;20021;-75
2022/01/06 06:24:37;;;;;;;10.57;1.95;;;14.50;57.80;;;;;;6158483;23;20021;-71
2022/01/06 06:27:03;;;;;;;14.35;2.78;;;14.70;57.70;;;;;;6156659;23;20052;-73
2022/01/06 06:29:29;;;;;;;12.25;2.30;;;14.80;57.50;;;;;;6157102;23;20427;-74
2022/01/06 06:31:55;;;;;;;14.05;2.15;;;15.00;57.60;;;;;;6157186;23;20028;-72
2022/01/06 06:34:21;;;;;;;6.95;2.25;;;15.10;57.50;;;;;;6156580;23;20025;-73
2022/01/06 06:36:47;;;;;;;9.30;2.17;;;15.10;57.80;;;;;;6157282;23;20096;-76
2022/01/06 06:39:15;;;;;;;12.05;2.03;;;15.20;58.10;;;;;;6156588;23;20049;-75
2022/01/06 06:41:41;;;;;;;8.35;1.70;;;15.20;58.40;;;;;;6154419;23;20315;-74
2022/01/06 06:44:07;;;;;;;9.95;2.70;;;15.20;58.40;;;;;;6157963;23;20092;-75
2022/01/06 06:46:33;;;;;;;9.80;1.25;;;15.30;58.50;;;;;;6156918;23;20079;-75
2022/01/06 06:48:58;;;;;;;9.27;1.42;;;15.40;58.70;;;;;;6158061;23;20021;-75
2022/01/06 06:51:24;;;;;;;18.50;2.17;;;15.40;58.90;;;;;;6158473;23;20014;-74
2022/01/06 06:53:53;;;;;;;8.90;2.17;;;15.40;59.10;;;;;;6156492;23;20319;-76
2022/01/06 06:56:19;;;;;;;8.07;1.50;;;15.50;59.30;;;;;;6157681;23;20018;-74
2022/01/06 06:58:44;;;;;;;11.45;1.85;;;15.50;59.30;;;;;;6158618;23;20017;-76
2022/01/06 07:01:10;;;;;;;8.18;1.50;;;15.50;59.50;;;;;;6158052;23;20430;-74
2022/01/06 07:03:35;;;;;;;7.95;1.83;;;15.50;59.50;;;;;;6157552;23;20099;-75
2022/01/06 07:06:01;;;;;;;7.97;1.70;;;15.60;59.80;;;;;;6158700;23;20021;-74
2022/01/06 07:08:27;;;;;;;8.55;1.20;;;15.70;60.00;;;;;;6156824;23;20017;-76
2022/01/06 07:10:53;;;;;;;7.25;1.63;;;15.70;60.00;;;;;;6157845;23;20036;-77
2022/01/06 07:13:19;;;;;;;7.55;2.13;;;15.80;60.00;;;;;;6157712;23;20026;-76
2022/01/06 07:15:45;;;;;;;10.30;2.30;;;15.90;59.10;;;;;;6158001;23;20017;-76
2022/01/06 07:18:12;;;;;;;6.43;1.52;;;15.90;59.90;;;;;;6157993;23;20029;-73
2022/01/06 07:20:38;;;;;;;11.45;1.73;;;16.00;59.60;;;;;;6131849;23;20097;-72
2022/01/06 07:23:04;;;;;;;8.63;1.95;;;16.10;59.60;;;;;;6154686;23;20053;-71
2022/01/06 07:25:30;;;;;;;8.48;1.75;;;16.20;59.50;;;;;;6157549;23;20025;-72
2022/01/06 07:27:56;;;;;;;10.60;1.58;;;16.20;59.20;;;;;;6157926;23;20018;-74
2022/01/06 07:30:22;;;;;;;9.10;2.00;;;16.20;59.20;;;;;;6156232;23;20396;-76
2022/01/06 07:32:51;;;;;;;12.18;1.55;;;16.30;58.30;;;;;;6157129;23;20022;-72
2022/01/06 07:35:23;;;;;;;12.85;2.17;;;16.30;55.60;;;;;;6157137;23;20021;-73
2022/01/06 07:37:50;;;;;;;14.03;2.47;;;16.30;56.40;;;;;;6157446;23;20423;-73
2022/01/06 07:40:17;;;;;;;5.80;1.58;;;16.30;56.50;;;;;;6158201;23;20359;-73
2022/01/06 07:42:43;;;;;;;12.80;1.90;;;16.40;56.40;;;;;;6156783;23;20036;-72
2022/01/06 07:45:09;;;;;;;7.32;1.85;;;16.40;55.50;;;;;;6157774;23;20407;-75
2022/01/06 07:47:42;;;;;;;6.90;1.60;;;16.40;55.40;;;;;;6155505;23;20412;-74
2022/01/06 07:50:08;;;;;;;9.18;2.00;;;16.40;55.50;;;;;;6155863;23;20049;-75
2022/01/06 07:52:33;;;;;;;13.05;1.98;;;16.50;55.60;;;;;;6131239;23;20033;-74
2022/01/06 07:54:59;;;;;;;10.35;1.40;;;16.50;55.70;;;;;;6156436;23;20033;-79
2022/01/06 07:57:25;;;;;;;11.75;2.10;;;16.50;55.90;;;;;;6156645;23;20089;-73
2022/01/06 07:59:50;;;;;;;13.07;2.22;;;16.60;56.10;;;;;;6157586;23;20021;-75
2022/01/06 08:02:16;;;;;;;6.15;1.73;;;16.60;56.40;;;;;;6159136;23;20451;-77
2022/01/06 08:04:42;;;;;;;10.40;1.95;;;16.60;55.20;;;;;;6159530;23;20112;-75
2022/01/06 08:07:08;;;;;;;19.65;2.33;;;16.50;53.50;;;;;;6159441;23;20415;-76
2022/01/06 08:09:33;;;;;;;10.77;1.73;;;16.40;50.30;;;;;;6158543;23;20029;-76
2022/01/06 08:11:59;;;;;;;10.35;2.00;;;16.30;54.50;;;;;;6159818;23;20017;-74
2022/01/06 08:14:25;;;;;;;15.52;2.53;;;16.30;54.70;;;;;;6159435;23;20403;-76
2022/01/06 08:16:51;;;;;;;13.05;2.38;;;16.20;51.20;;;;;;6157882;23;20022;-75
2022/01/06 08:19:17;;;;;;;16.98;2.20;;;16.30;54.90;;;;;;6157985;23;20017;-76
2022/01/06 08:21:44;;;;;;;26.67;3.45;;;16.20;50.90;;;;;;6160020;23;20083;-73
2022/01/06 08:24:10;;;;;;;12.90;2.63;;;14.60;54.70;;;;;;6159260;23;20025;-76
2022/01/06 08:26:36;;;;;;;11.73;2.10;;;14.90;56.00;;;;;;6159082;23;20404;-76
2022/01/06 08:29:01;;;;;;;13.25;2.42;;;15.30;55.90;;;;;;6157676;23;20040;-74
2022/01/06 08:31:27;;;;;;;21.38;2.97;;;15.60;55.50;;;;;;6159244;23;20318;-76
2022/01/06 08:33:53;;;;;;;12.15;2.70;;;15.90;55.00;;;;;;6159293;23;20017;-75
2022/01/06 08:36:18;;;;;;;16.45;2.95;;;16.10;54.60;;;;;;6159250;23;20025;-73
2022/01/06 08:38:44;;;;;;;14.25;3.00;;;16.20;55.70;;;;;;6157894;23;20014;-71
2022/01/06 08:41:10;;;;;;;14.93;2.80;;;16.30;54.50;;;;;;6156959;23;20076;-74
2022/01/06 08:43:36;;;;;;;14.15;2.42;;;16.40;54.20;;;;;;6159167;23;20319;-73
2022/01/06 08:46:02;;;;;;;15.45;2.60;;;16.40;54.50;;;;;;6158867;23;20021;-72
2022/01/06 08:48:29;;;;;;;10.88;2.50;;;16.40;54.50;;;;;;6157577;23;20032;-72
2022/01/06 08:50:55;;;;;;;15.38;2.35;;;16.40;55.00;;;;;;6157932;23;20021;-74
2022/01/06 08:53:22;;;;;;;13.32;2.45;;;16.40;55.70;;;;;;6157909;23;20032;-72
2022/01/06 08:55:48;;;;;;;14.20;1.98;;;16.30;55.60;;;;;;6159212;23;20076;-75
2022/01/06 08:58:14;;;;;;;14.00;2.22;;;16.30;56.00;;;;;;6158618;23;20029;-73
2022/01/06 09:00:40;;;;;;;10.23;2.33;;;16.20;56.30;;;;;;6158859;23;20033;-77
2022/01/06 09:03:07;;;;;;;12.55;2.08;;;16.10;56.40;;;;;;6158547;23;20034;-72
2022/01/06 09:05:33;;;;;;;9.80;2.40;;;16.10;56.90;;;;;;6159017;23;20100;-73
2022/01/06 09:07:59;;;;;;;19.17;2.78;;;16.00;58.90;;;;;;6133532;23;20024;-75
2022/01/06 09:10:29;;;;;;;14.88;3.13;;;16.00;57.80;;;;;;6159154;23;20018;-78
2022/01/06 09:12:55;;;;;;;15.68;2.95;;;16.00;58.40;;;;;;6158762;23;20376;-76
2022/01/06 09:15:21;;;;;;;13.77;2.47;;;16.00;58.20;;;;;;6159482;23;20048;-74
2022/01/06 09:17:47;;;;;;;12.30;2.35;;;16.00;58.60;;;;;;6158903;23;20110;-74
2022/01/06 09:20:13;;;;;;;15.80;2.97;;;16.00;58.30;;;;;;6158320;23;20026;-75
2022/01/06 09:22:40;;;;;;;9.82;1.88;;;16.00;58.40;;;;;;6157991;23;20312;-69
2022/01/06 09:25:07;;;;;;;12.82;2.55;;;16.00;58.70;;;;;;6157056;23;20017;-74
2022/01/06 09:27:32;;;;;;;13.65;2.35;;;16.00;58.60;;;;;;6158581;23;20071;-76
2022/01/06 09:29:59;;;;;;;9.35;2.00;;;16.00;59.00;;;;;;6159493;23;20025;-75
2022/01/06 09:32:24;;;;;;;12.13;2.00;;;16.10;60.10;;;;;;6159249;23;20288;-80
2022/01/06 09:34:50;;;;;;;7.88;1.73;;;16.20;60.20;;;;;;6158813;23;20092;-74
2022/01/06 09:37:17;;;;;;;17.35;2.50;;;16.30;60.20;;;;;;6157713;23;20029;-75
2022/01/06 09:39:45;;;;;;;12.45;2.40;;;16.30;60.20;;;;;;6158718;23;20281;-75
2022/01/06 09:42:12;;;;;;;14.52;2.58;;;16.30;60.20;;;;;;6158698;23;20027;-76
2022/01/06 09:44:38;;;;;;;13.38;2.50;;;16.20;60.70;;;;;;6158706;23;20028;-76
2022/01/06 09:47:06;;;;;;;13.50;2.78;;;16.20;55.40;;;;;;6158453;23;20284;-76
2022/01/06 09:49:37;;;;;;;11.10;2.55;;;14.80;52.30;;;;;;6156866;23;20026;-75
2022/01/06 09:52:04;;;;;;;13.20;2.55;;;14.00;55.70;;;;;;6158627;23;20025;-77
2022/01/06 09:54:30;;;;;;;8.50;1.98;;;13.60;58.10;;;;;;6132537;23;20028;-75
2022/01/06 09:56:55;;;;;;;12.15;2.58;;;14.20;63.40;;;;;;6159306;23;20026;-76
2022/01/06 09:59:21;;;;;;;14.13;2.50;;;14.50;63.00;;;;;;6158854;23;20532;-76
2022/01/06 10:01:47;;;;;;;8.13;2.17;;;14.70;63.00;;;;;;6158658;23;20021;-78
2022/01/06 10:04:29;;;;;;;12.88;2.58;;;15.00;63.10;;;;;;6158816;23;20092;-78
2022/01/06 10:07:04;;;;;;;11.68;2.80;;;15.10;62.80;;;;;;6156804;23;20022;-75
2022/01/06 10:09:33;;;;;;;9.60;2.13;;;15.20;63.20;;;;;;6158761;23;20056;-77
2022/01/06 10:12:03;;;;;;;12.48;2.20;;;15.30;62.90;;;;;;6157956;23;20029;-75
2022/01/06 10:14:43;;;;;;;10.88;2.20;;;15.30;62.80;;;;;;6156911;23;20022;-75
2022/01/06 10:17:10;;;;;;;10.25;2.17;;;15.40;62.70;;;;;;6158615;23;20284;-77
2022/01/06 10:19:40;;;;;;;7.50;2.40;;;15.40;62.60;;;;;;6158932;23;20025;-76
2022/01/06 10:22:19;;;;;;;11.13;2.42;;;15.40;62.60;;;;;;6159024;23;20080;-74
2022/01/06 10:24:46;;;;;;;7.82;1.98;;;15.40;62.80;;;;;;6158363;23;20037;-76
2022/01/06 10:27:15;;;;;;;6.97;2.40;;;15.40;62.00;;;;;;6158410;23;20021;-76
2022/01/06 10:29:47;;;;;;;9.15;2.60;;;15.40;62.10;;;;;;6158960;23;20025;-77
2022/01/06 10:32:14;;;;;;;14.43;3.08;;;15.40;61.80;;;;;;6157046;23;20021;-77
2022/01/06 10:34:43;;;;;;;7.35;1.95;;;15.40;60.20;;;;;;6157818;23;20017;-76
2022/01/06 10:37:24;;;;;;;12.40;2.30;;;15.40;58.10;;;;;;6157755;23;20017;-75
2022/01/06 10:39:52;;;;;;;9.30;2.03;;;15.40;54.80;;;;;;6158303;23;20028;-76
2022/01/06 10:42:22;;;;;;;14.43;2.88;;;15.10;57.10;;;;;;6157678;23;20017;-76
2022/01/06 10:44:50;;;;;;;10.20;2.20;;;15.10;57.10;;;;;;6157991;23;20411;-74
2022/01/06 10:47:37;;;;;;;9.63;2.58;;;15.10;57.10;;;;;;6157895;23;20032;-74
2022/01/06 10:50:10;;;;;;;12.57;2.72;;;15.10;57.40;;;;;;6103017;23;20427;-73
2022/01/06 10:52:39;;;;;;;9.15;1.90;;;15.10;57.10;;;;;;6128365;23;20021;-74
2022/01/06 10:55:28;;;;;;;9.13;2.35;;;15.10;57.90;;;;;;6128423;23;20319;-75
2022/01/06 10:57:58;;;;;;;7.05;2.45;;;15.10;58.50;;;;;;6128555;23;20018;-75
2022/01/06 11:00:27;;;;;;;12.40;2.08;;;15.10;58.80;;;;;;6102679;23;20426;-75
2022/01/06 11:03:24;;;;;;;11.70;2.78;;;15.10;58.60;;;;;;6128170;23;20396;-73
2022/01/06 11:05:54;;;;;;;8.18;1.75;;;15.10;58.40;;;;;;6126674;23;20022;-73
2022/01/06 11:08:25;;;;;;;11.73;2.08;;;15.00;58.50;;;;;;6128450;23;20461;-74
2022/01/06 11:13:33;;;;;;;8.40;2.35;;;15.00;58.50;;;;;;6102825;23;20030;-74
2022/01/06 11:15:59;;;;;;;8.68;2.25;;;14.90;58.50;;;;;;6128396;23;20029;-76
2022/01/06 11:18:26;;;;;;;10.23;1.83;;;14.90;58.60;;;;;;6103205;23;20029;-73
2022/01/06 11:21:00;;;;;;;9.35;1.80;;;14.90;58.70;;;;;;6102084;23;20017;-73
2022/01/06 11:23:26;;;;;;;6.65;1.92;;;14.80;58.80;;;;;;6128597;23;20018;-74
2022/01/06 11:26:16;;;;;;;8.57;1.80;;;14.80;59.00;;;;;;6128176;23;20097;-74
2022/01/06 11:28:53;;;;;;;10.55;2.05;;;14.80;59.00;;;;;;6102583;23;20407;-74
2022/01/06 11:31:21;;;;;;;4.82;1.65;;;14.80;59.90;;;;;;6103458;23;20416;-75
2022/01/06 11:33:49;;;;;;;7.65;1.90;;;14.80;59.40;;;;;;6128306;23;20102;-73
2022/01/06 11:36:29;;;;;;;8.68;2.17;;;14.80;59.50;;;;;;6103991;23;20021;-76
2022/01/06 11:38:55;;;;;;;8.73;2.17;;;14.80;59.50;;;;;;6104284;23;20022;-74
2022/01/06 11:41:37;;;;;;;7.90;1.77;;;14.80;59.70;;;;;;6104471;23;20017;-74
2022/01/06 11:44:14;;;;;;;7.20;1.75;;;14.70;59.70;;;;;;6104958;23;20315;-75
2022/01/06 11:46:42;;;;;;;6.45;1.38;;;14.70;59.80;;;;;;6104734;23;20375;-73
2022/01/06 11:49:08;;;;;;;5.15;1.85;;;14.70;59.90;;;;;;6141272;23;20092;-74
2022/01/06 11:51:37;;;;;;;7.80;2.10;;;14.70;60.00;;;;;;6157960;23;20060;-74
2022/01/06 11:54:32;;;;;;;6.88;1.55;;;14.60;60.00;;;;;;6158276;23;20088;-74
2022/01/06 11:56:57;;;;;;;6.13;1.65;;;14.70;60.00;;;;;;6127760;23;20018;-74
2022/01/06 11:59:32;;;;;;;6.60;1.50;;;14.70;60.20;;;;;;6159670;23;20022;-74
2022/01/06 12:01:58;;;;;;;6.13;1.25;;;14.60;60.10;;;;;;6159710;23;20029;-75
2022/01/06 12:04:26;;;;;;;8.00;1.70;;;14.60;60.20;;;;;;6160167;23;20091;-75
2022/01/06 12:07:06;;;;;;;7.60;1.65;;;14.60;60.20;;;;;;6158128;23;20028;-76
2022/01/06 12:09:32;;;;;;;5.93;1.90;;;14.60;60.20;;;;;;6159591;23;20021;-74
2022/01/06 12:12:03;;;;;;;5.78;1.67;;;14.60;60.30;;;;;;6159738;23;20024;-74
2022/01/06 12:14:29;;;;;;;7.20;1.38;;;14.60;60.30;;;;;;6158251;23;20036;-75
2022/01/06 12:17:10;;;;;;;5.40;1.50;;;14.60;60.30;;;;;;6158564;23;20033;-74
2022/01/06 12:19:37;;;;;;;5.15;1.52;;;14.50;60.30;;;;;;6159544;23;20028;-74
2022/01/06 12:22:04;;;;;;;4.32;1.63;;;14.50;60.40;;;;;;6158749;23;20026;-76
2022/01/06 12:24:30;;;;;;;6.65;1.70;;;14.50;60.40;;;;;;6158614;23;20018;-76
2022/01/06 12:26:56;;;;;;;7.18;1.30;;;14.50;60.50;;;;;;6157793;23;20028;-73
2022/01/06 12:29:26;;;;;;;4.15;1.17;;;14.50;60.50;;;;;;6158525;23;20026;-75
2022/01/06 12:32:03;;;;;;;4.10;1.17;;;14.50;60.50;;;;;;6158598;23;20407;-74
2022/01/06 12:34:29;;;;;;;4.00;1.30;;;14.50;60.40;;;;;;6159266;23;20039;-75
2022/01/06 12:36:54;;;;;;;4.00;0.93;;;14.40;60.40;;;;;;6158200;23;20022;-74
2022/01/06 12:39:22;;;;;;;4.82;1.35;;;14.50;60.50;;;;;;6158144;23;20028;-74
2022/01/06 12:41:49;;;;;;;4.85;1.17;;;14.50;60.50;;;;;;6160006;23;20021;-73
2022/01/06 12:44:24;;;;;;;4.55;1.40;;;14.40;60.50;;;;;;6159619;23;20307;-75
2022/01/06 12:46:50;;;;;;;4.50;1.08;;;14.40;60.50;;;;;;6158474;23;20375;-74
2022/01/06 12:49:16;;;;;;;4.50;1.45;;;14.40;60.50;;;;;;6158041;23;20025;-73
2022/01/06 12:51:45;;;;;;;4.70;1.20;;;14.40;60.60;;;;;;6157796;23;20029;-75
2022/01/06 12:54:17;;;;;;;3.35;1.15;;;14.40;60.60;;;;;;6159149;23;20021;-75
2022/01/06 12:56:49;;;;;;;6.30;1.33;;;14.40;60.60;;;;;;6158786;23;20430;-73